Terminal Aerodrome Forecast
Issued by NWS Sterling, VA

Current Version | Previous Version | Graphics & Text | Print | Product List | Glossary On
Versions: 1 2 3 4 5 6 7 8 9 10 11 12 13
000
FTUS41 KLWX 241000 AAB
TAFMRB
TAF AMD
KMRB 241006Z 2410/2506 19014KT P6SM BKN040
     FM241700 20017G26KT P6SM SCT060
     FM242300 20011KT P6SM SCT150
     FM250300 24007KT P6SM SCT150=

USA.gov is the U.S. government's official web portal to all federal, state and local government web resources and services.